TimeMST,TemperatureF,Dew PointF,Humidity,Sea Level PressureIn,VisibilityMPH,Wind Direction,Wind SpeedMPH,Gust SpeedMPH,PrecipitationIn,Events,Conditions,WindDirDegrees,DateUTC
12:44 AM,60.8,57.2,88,29.98,10.0,NNW,6.9,-,N/A,,Mostly Cloudy,340,2013-01-01 07:44:00
1:46 AM,60.8,57.2,88,29.98,10.0,North,6.9,-,N/A,,Mostly Cloudy,350,2013-01-01 08:46:00
2:47 AM,60.8,57.2,88,29.96,10.0,North,6.9,-,N/A,,Mostly Cloudy,360,2013-01-01 09:47:00
3:41 AM,60.8,57.2,88,29.93,10.0,NNW,9.2,-,N/A,,Scattered Clouds,340,2013-01-01 10:41:00
4:49 AM,60.8,57.2,88,29.91,10.0,North,8.1,-,N/A,,Mostly Cloudy,360,2013-01-01 11:49:00
5:47 AM,59.0,55.4,88,29.90,10.0,North,6.9,-,N/A,,Overcast,350,2013-01-01 12:47:00
6:43 AM,59.0,53.6,82,29.91,12.0,NNW,8.1,-,N/A,,Overcast,340,2013-01-01 13:43:00
7:45 AM,60.8,57.2,88,29.92,12.0,NE,6.9,-,N/A,,Overcast,50,2013-01-01 14:45:00
8:46 AM,62.6,59.0,88,29.91,14.0,North,8.1,-,N/A,,Overcast,10,2013-01-01 15:46:00
9:44 AM,64.4,60.8,88,29.93,12.0,Calm,Calm,-,N/A,,Overcast,0,2013-01-01 16:44:00
10:46 AM,66.2,60.8,83,29.91,14.0,NE,8.1,-,N/A,,Overcast,40,2013-01-01 17:46:00
11:47 AM,66.2,60.8,83,29.91,14.0,ENE,6.9,-,N/A,,Overcast,60,2013-01-01 18:47:00
12:48 PM,69.8,62.6,78,29.88,14.0,NNW,6.9,-,N/A,,Overcast,340,2013-01-01 19:48:00
1:42 PM,69.8,60.8,73,29.87,14.0,NNW,6.9,-,N/A,,Overcast,340,2013-01-01 20:42:00
2:40 PM,69.8,62.6,78,29.86,15.0,South,5.8,-,N/A,,Overcast,180,2013-01-01 21:40:00
3:41 PM,69.8,62.6,78,29.87,14.0,SE,5.8,-,N/A,,Overcast,140,2013-01-01 22:41:00
4:40 PM,68.0,62.6,83,29.86,10.0,ESE,6.9,-,N/A,,Overcast,110,2013-01-01 23:40:00
5:42 PM,66.2,62.6,88,29.86,10.0,East,5.8,-,N/A,,Overcast,90,2013-01-02 00:42:00
6:40 PM,66.2,60.8,83,29.88,10.0,ESE,6.9,-,N/A,,Overcast,120,2013-01-02 01:40:00
7:46 PM,64.4,62.6,94,29.89,10.0,Calm,Calm,-,N/A,,Overcast,0,2013-01-02 02:46:00
8:50 PM,64.4,62.6,94,29.89,10.0,NW,6.9,-,N/A,,Overcast,310,2013-01-02 03:50:00
9:42 PM,64.4,60.8,88,29.89,10.0,North,6.9,-,N/A,,Overcast,360,2013-01-02 04:42:00
10:40 PM,64.4,62.6,94,29.90,10.0,NW,4.6,-,N/A,,Overcast,310,2013-01-02 05:40:00
11:51 PM,64.4,60.8,88,29.86,10.0,North,8.1,-,N/A,,Overcast,350,2013-01-02 06:51:00